Time;durP1;ratioP1;P1;durP2;ratioP2;P2;SDS_P1;SDS_P2;PMS_P1;PMS_P2;Temp;Humidity;BMP_temperature;BMP_pressure;BME280_temperature;BME280_humidity;BME280_pressure;Samples;Min_cycle;Max_cycle;Signal;HPM_P1;HPM_P2
2022/03/20 00:01:02;;;;;;;36.03;21.03;;;;;;;0.53;100.00;103546.19;4981052;28;20046;-79
2022/03/20 00:03:30;;;;;;;36.47;21.20;;;;;;;0.38;100.00;103543.44;4957320;28;20581;-76
2022/03/20 00:05:59;;;;;;;40.53;22.13;;;;;;;0.53;100.00;103543.56;4969031;28;20053;-77
2022/03/20 00:08:26;;;;;;;38.03;20.20;;;;;;;0.47;100.00;103540.56;4956298;28;20469;-77
2022/03/20 00:10:54;;;;;;;35.63;19.87;;;;;;;0.39;100.00;103542.63;4988361;28;20711;-77
2022/03/20 00:13:23;;;;;;;32.17;18.90;;;;;;;0.36;100.00;103533.75;4981307;28;20085;-77
2022/03/20 00:15:51;;;;;;;34.73;20.43;;;;;;;0.35;100.00;103539.75;4976712;28;20100;-78
2022/03/20 00:18:29;;;;;;;36.40;19.70;;;;;;;0.41;100.00;103534.94;4955881;28;20083;-77
2022/03/20 00:20:59;;;;;;;35.17;18.50;;;;;;;0.37;100.00;103532.94;4970395;28;20039;-77
2022/03/20 00:23:26;;;;;;;35.80;20.10;;;;;;;0.48;100.00;103526.75;4973021;28;20050;-76
2022/03/20 00:25:57;;;;;;;32.23;18.50;;;;;;;0.56;100.00;103534.25;4970359;28;20376;-78
2022/03/20 00:28:25;;;;;;;35.13;19.60;;;;;;;0.62;100.00;103525.97;4973439;28;20053;-78
2022/03/20 00:30:53;;;;;;;36.40;18.93;;;;;;;0.56;100.00;103526.47;4976705;28;20088;-77
2022/03/20 00:33:20;;;;;;;42.67;19.73;;;;;;;0.54;100.00;103522.88;4977091;28;20488;-77
2022/03/20 00:35:49;;;;;;;28.93;17.80;;;;;;;0.47;100.00;103533.66;4971214;28;20046;-79
2022/03/20 00:38:16;;;;;;;36.83;20.33;;;;;;;0.68;100.00;103530.69;4974420;28;20049;-80
2022/03/20 00:40:47;;;;;;;31.60;18.07;;;;;;;0.62;100.00;103528.56;4969319;28;20133;-79
2022/03/20 00:43:14;;;;;;;30.80;18.07;;;;;;;0.52;100.00;103529.66;4987089;28;20046;-78
2022/03/20 00:45:41;;;;;;;34.03;19.47;;;;;;;0.60;100.00;103524.06;4953819;28;20104;-77
2022/03/20 00:48:10;;;;;;;34.27;19.10;;;;;;;0.59;100.00;103524.84;4987050;28;20038;-79
2022/03/20 00:50:36;;;;;;;33.43;19.27;;;;;;;0.46;100.00;103526.66;4973104;28;20048;-79
2022/03/20 00:53:06;;;;;;;33.30;17.93;;;;;;;0.48;100.00;103526.75;4975502;28;20069;-78
2022/03/20 00:55:34;;;;;;;30.20;17.50;;;;;;;0.39;100.00;103526.13;4957127;28;20101;-80
2022/03/20 00:58:03;;;;;;;32.23;18.47;;;;;;;0.54;100.00;103521.97;4951315;28;20038;-78
2022/03/20 01:00:32;;;;;;;31.40;18.50;;;;;;;0.44;100.00;103514.34;4992224;28;20050;-78
2022/03/20 01:03:00;;;;;;;34.90;18.47;;;;;;;0.51;100.00;103511.38;4967016;28;20050;-79
2022/03/20 01:05:27;;;;;;;30.83;17.60;;;;;;;0.35;100.00;103517.25;5011761;28;20042;-78
2022/03/20 01:07:55;;;;;;;34.10;18.47;;;;;;;0.27;100.00;103518.44;4976730;28;20054;-79
2022/03/20 01:10:30;;;;;;;32.00;17.77;;;;;;;0.32;100.00;103514.41;4996866;28;20690;-79
2022/03/20 01:12:56;;;;;;;30.95;17.90;;;;;;;0.37;100.00;103513.03;5007751;28;20054;-79
2022/03/20 01:15:26;;;;;;;32.53;19.10;;;;;;;0.38;100.00;103508.75;4993841;28;20069;-78
2022/03/20 01:17:53;;;;;;;34.53;18.27;;;;;;;0.29;100.00;103503.81;4990552;28;20076;-79
2022/03/20 01:20:21;;;;;;;30.33;18.13;;;;;;;0.41;100.00;103504.63;4980330;28;20051;-79
2022/03/20 01:22:47;;;;;;;31.70;18.77;;;;;;;0.35;100.00;103506.84;4994136;28;20089;-79
2022/03/20 01:25:18;;;;;;;30.13;18.07;;;;;;;0.20;100.00;103501.50;4997904;28;20319;-79
2022/03/20 01:27:45;;;;;;;34.70;19.00;;;;;;;0.17;100.00;103500.38;4997332;28;20041;-79
2022/03/20 01:30:17;;;;;;;34.73;18.07;;;;;;;0.22;100.00;103501.59;4988456;28;20039;-79
2022/03/20 01:32:44;;;;;;;33.20;17.20;;;;;;;0.19;100.00;103493.63;4982173;28;20076;-78
2022/03/20 01:35:14;;;;;;;32.27;18.47;;;;;;;0.15;100.00;103502.00;4970071;28;20073;-79
2022/03/20 01:37:43;;;;;;;34.13;18.87;;;;;;;0.09;100.00;103492.09;4959644;28;20065;-78
2022/03/20 01:40:10;;;;;;;32.63;17.30;;;;;;;0.09;100.00;103488.59;4993094;28;20046;-80
2022/03/20 01:42:40;;;;;;;33.43;17.67;;;;;;;0.18;100.00;103486.63;4984817;28;20080;-79
2022/03/20 01:45:17;;;;;;;30.10;18.33;;;;;;;0.01;100.00;103487.19;4998756;28;20092;-79
2022/03/20 01:47:47;;;;;;;29.67;17.67;;;;;;;-0.01;100.00;103476.66;4973912;28;20054;-79
2022/03/20 01:50:23;;;;;;;37.30;17.63;;;;;;;-0.06;100.00;103472.88;4964493;28;20065;-79
2022/03/20 01:52:51;;;;;;;;;;;;;;;-0.06;100.00;103478.06;4992880;28;20666;-79
2022/03/20 01:55:19;;;;;;;37.17;17.77;;;;;;;-0.07;100.00;103471.97;4993277;28;19935;-79
2022/03/20 01:57:46;;;;;;;34.30;17.90;;;;;;;-0.11;100.00;103472.53;4980751;28;20053;-80
2022/03/20 02:00:15;;;;;;;30.60;17.10;;;;;;;-0.11;100.00;103469.94;5002759;28;20038;-79
2022/03/20 02:02:42;;;;;;;31.23;18.70;;;;;;;-0.09;100.00;103463.13;5016532;28;20041;-79
2022/03/20 02:05:14;;;;;;;30.27;17.63;;;;;;;-0.14;100.00;103466.25;5001810;28;20382;-80
2022/03/20 02:07:41;;;;;;;32.43;17.60;;;;;;;-0.19;100.00;103460.72;4995688;28;20150;-79
2022/03/20 02:10:08;;;;;;;29.87;18.13;;;;;;;-0.18;100.00;103453.81;4981640;28;20092;-79
2022/03/20 02:12:36;;;;;;;35.27;19.67;;;;;;;-0.31;100.00;103462.50;5002491;28;20053;-80
2022/03/20 02:15:06;;;;;;;31.43;17.93;;;;;;;-0.22;100.00;103451.84;4983429;28;20104;-79
2022/03/20 02:17:34;;;;;;;30.40;16.57;;;;;;;-0.24;100.00;103454.34;4967667;28;20044;-79
2022/03/20 02:20:05;;;;;;;33.80;17.33;;;;;;;-0.34;100.00;103452.81;4977737;28;20109;-78
2022/03/20 02:22:37;;;;;;;31.03;17.40;;;;;;;-0.31;100.00;103445.22;4980692;28;20065;-79
2022/03/20 02:25:05;;;;;;;30.67;17.80;;;;;;;-0.34;100.00;103442.41;4982267;28;20041;-79
2022/03/20 02:27:38;;;;;;;32.43;19.00;;;;;;;-0.40;100.00;103441.09;4997777;28;20116;-79
2022/03/20 02:30:13;;;;;;;35.53;17.73;;;;;;;-0.45;100.00;103437.25;5003401;28;20046;-79
2022/03/20 02:32:43;;;;;;;32.43;17.93;;;;;;;-0.43;100.00;103436.56;5001280;28;20125;-79
2022/03/20 02:35:13;;;;;;;29.13;17.10;;;;;;;-0.47;100.00;103436.25;4983457;28;20042;-79
2022/03/20 02:37:52;;;;;;;31.77;18.90;;;;;;;-0.50;100.00;103436.06;4994417;28;20046;-79
2022/03/20 02:40:20;;;;;;;29.53;17.43;;;;;;;-0.48;100.00;103434.47;5016630;28;20038;-79
2022/03/20 02:42:51;;;;;;;32.57;18.00;;;;;;;-0.49;100.00;103432.66;4983949;28;20038;-79
2022/03/20 02:45:22;;;;;;;30.57;17.67;;;;;;;-0.60;100.00;103429.31;4986496;28;20087;-79
2022/03/20 02:47:53;;;;;;;31.23;16.70;;;;;;;-0.71;100.00;103431.16;4988434;28;20555;-79
2022/03/20 02:50:24;;;;;;;31.10;17.75;;;;;;;-0.73;100.00;103430.16;4995192;28;20052;-79
2022/03/20 02:52:51;;;;;;;34.07;18.87;;;;;;;-0.59;100.00;103428.50;4972818;28;20520;-79
2022/03/20 02:55:27;;;;;;;33.13;17.80;;;;;;;-0.72;100.00;103425.88;5001761;28;20646;-79
2022/03/20 02:58:06;;;;;;;34.33;18.70;;;;;;;-0.64;100.00;103430.81;4994168;28;20072;-79
2022/03/20 03:00:34;;;;;;;32.20;18.40;;;;;;;-0.69;100.00;103421.78;4971698;28;20101;-79
2022/03/20 03:03:02;;;;;;;32.23;18.53;;;;;;;-0.77;100.00;103425.53;4993099;28;20060;-78
2022/03/20 03:05:30;;;;;;;30.13;15.93;;;;;;;-0.71;100.00;103417.28;4965196;28;20052;-78
2022/03/20 03:11:01;;;;;;;35.43;17.80;;;;;;;-0.90;100.00;103412.53;5004770;28;20037;-79
2022/03/20 03:13:40;;;;;;;32.43;19.07;;;;;;;-0.90;100.00;103418.59;4994472;28;20041;-78
2022/03/20 03:16:11;;;;;;;32.03;17.37;;;;;;;-0.88;100.00;103416.13;4996747;28;20042;-79
2022/03/20 03:18:44;;;;;;;33.90;18.57;;;;;;;-0.84;100.00;103423.34;4970570;28;20508;-79
2022/03/20 03:21:16;;;;;;;35.90;17.87;;;;;;;-0.90;100.00;103422.91;4971810;28;20250;-79
2022/03/20 03:23:43;;;;;;;31.37;17.27;;;;;;;-0.87;100.00;103417.91;4980849;28;20038;-79
2022/03/20 03:26:11;;;;;;;30.33;16.90;;;;;;;-0.93;100.00;103425.25;4995840;28;20038;-80
2022/03/20 03:28:37;;;;;;;32.17;17.50;;;;;;;-0.95;100.00;103413.88;4996258;28;20568;-79
2022/03/20 03:31:09;;;;;;;30.20;17.73;;;;;;;-0.77;100.00;103414.25;4994204;28;20129;-79
2022/03/20 03:35:41;;;;;;;30.80;18.70;;;;;;;-0.74;100.00;103411.91;4959212;28;20520;-79
2022/03/20 03:36:25;;;;;;;29.43;18.13;;;;;;;-0.79;100.00;103415.84;4994273;28;20061;-79
2022/03/20 03:38:53;;;;;;;33.20;18.17;;;;;;;-0.78;100.00;103410.75;4991718;28;20124;-79
2022/03/20 03:41:20;;;;;;;34.43;18.67;;;;;;;-0.57;100.00;103411.38;4964500;28;20422;-78
2022/03/20 03:43:47;;;;;;;31.77;19.20;;;;;;;-0.76;100.00;103410.88;4981478;28;20048;-78
2022/03/20 03:46:13;;;;;;;33.83;18.87;;;;;;;-0.72;100.00;103405.09;5008131;28;20540;-80
2022/03/20 03:48:40;;;;;;;30.67;17.60;;;;;;;-0.88;100.00;103410.91;4990911;28;20042;-79
2022/03/20 03:51:07;;;;;;;34.00;17.20;;;;;;;-0.85;100.00;103401.63;4997607;28;20041;-78
2022/03/20 03:53:33;;;;;;;36.53;18.67;;;;;;;-0.74;100.00;103402.41;4978547;28;20559;-79
2022/03/20 03:56:00;;;;;;;34.53;17.30;;;;;;;-0.72;100.00;103398.22;4991467;28;20045;-78
2022/03/20 03:58:27;;;;;;;32.80;20.33;;;;;;;-0.65;100.00;103397.84;5015857;28;21472;-78
2022/03/20 04:00:53;;;;;;;32.57;17.50;;;;;;;-0.76;100.00;103396.19;4996615;28;20556;-79
2022/03/20 04:03:20;;;;;;;31.80;18.37;;;;;;;-0.82;100.00;103393.19;4978948;28;20053;-79
2022/03/20 04:05:47;;;;;;;31.57;17.60;;;;;;;-0.93;100.00;103396.72;4978210;28;20455;-78
2022/03/20 05:58:30;;;;;;;33.77;17.30;;;;;;;-0.63;94.78;103435.19;4984467;28;20109;-85
2022/03/20 06:00:57;;;;;;;31.90;18.47;;;;;;;-0.63;94.10;103431.69;4946021;28;20038;-86
2022/03/20 06:03:24;;;;;;;29.03;16.57;;;;;;;-0.73;94.68;103432.75;4955850;28;20152;-83
2022/03/20 06:05:51;;;;;;;31.07;17.30;;;;;;;-0.65;94.24;103435.91;4950736;28;20065;-82
2022/03/20 06:08:21;;;;;;;30.50;17.50;;;;;;;-0.67;95.13;103441.00;4945976;28;20035;-86
2022/03/20 06:10:48;;;;;;;33.53;18.13;;;;;;;-0.64;94.78;103440.28;4938795;28;20050;-86
2022/03/20 06:13:15;;;;;;;29.87;17.03;;;;;;;-0.78;95.20;103443.59;4967884;28;20512;-81
2022/03/20 06:15:42;;;;;;;32.53;17.03;;;;;;;-0.55;92.46;103433.13;4972855;28;20039;-81
2022/03/20 06:18:08;;;;;;;30.93;17.67;;;;;;;-0.47;91.52;103442.34;4948807;28;20034;-77
2022/03/20 06:20:35;;;;;;;32.50;17.83;;;;;;;-0.62;92.90;103437.00;4958684;28;20104;-81
2022/03/20 06:23:02;;;;;;;29.67;16.47;;;;;;;-0.59;90.77;103441.50;4959482;28;20436;-81
2022/03/20 06:25:29;;;;;;;29.57;17.37;;;;;;;-0.45;91.52;103445.06;4957193;28;20074;-81
2022/03/20 06:27:58;;;;;;;61.60;35.77;;;;;;;-0.21;87.81;103441.53;4952403;28;20055;-79
2022/03/20 06:30:26;;;;;;;39.57;22.93;;;;;;;-0.20;87.49;103432.94;4968462;28;20093;-85
2022/03/20 06:32:55;;;;;;;28.17;16.93;;;;;;;-0.07;84.86;103432.09;4940989;28;20046;-80
2022/03/20 06:35:21;;;;;;;28.57;16.37;;;;;;;0.14;81.87;103427.41;4971955;28;20498;-80
2022/03/20 06:37:50;;;;;;;33.93;22.30;;;;;;;0.20;82.21;103438.22;4939426;28;20051;-82
2022/03/20 06:40:17;;;;;;;30.50;20.77;;;;;;;0.30;81.30;103427.63;4954294;28;20039;-79
2022/03/20 06:42:44;;;;;;;28.80;17.83;;;;;;;0.39;78.00;103433.41;4961065;28;20490;-83
2022/03/20 06:45:12;;;;;;;25.40;16.30;;;;;;;0.47;77.01;103429.63;4956067;28;20046;-81
2022/03/20 06:47:40;;;;;;;30.73;19.57;;;;;;;0.60;78.70;103439.13;4975561;28;20666;-82
2022/03/20 06:50:09;;;;;;;29.17;17.53;;;;;;;0.72;75.79;103431.19;4956294;28;20093;-79
2022/03/20 06:52:38;;;;;;;26.63;16.63;;;;;;;0.75;75.25;103433.97;4955890;28;20043;-81
2022/03/20 06:55:06;;;;;;;26.23;15.67;;;;;;;0.83;74.41;103425.88;4944737;28;20043;-80
2022/03/20 06:57:33;;;;;;;28.93;16.57;;;;;;;0.89;74.44;103422.75;4937061;29;20973;-85
2022/03/20 07:00:02;;;;;;;31.60;16.73;;;;;;;1.00;71.69;103426.91;4958191;28;20049;-82
2022/03/20 07:02:28;;;;;;;33.50;20.53;;;;;;;1.18;70.65;103435.00;4962548;28;20081;-82
2022/03/20 07:04:55;;;;;;;26.00;16.03;;;;;;;1.30;68.44;103429.66;4950172;28;20039;-84
2022/03/20 07:07:23;;;;;;;32.60;15.90;;;;;;;1.63;65.94;103430.81;4954641;28;20047;-80
2022/03/20 07:09:50;;;;;;;29.83;16.10;;;;;;;1.81;64.59;103425.78;4966195;28;20059;-85
2022/03/20 07:12:16;;;;;;;27.93;16.20;;;;;;;2.14;68.48;103429.50;4965701;28;20043;-82
2022/03/20 07:14:44;;;;;;;28.33;16.97;;;;;;;2.50;65.72;103425.47;4942829;28;20070;-84
2022/03/20 07:17:12;;;;;;;25.13;16.53;;;;;;;2.76;65.07;103427.84;4953883;28;20097;-80
2022/03/20 07:19:43;;;;;;;26.00;16.07;;;;;;;2.81;62.90;103429.00;4957848;28;20053;-83
2022/03/20 07:22:12;;;;;;;30.13;16.70;;;;;;;2.98;61.73;103429.94;4958456;28;20057;-83
2022/03/20 07:24:41;;;;;;;30.73;17.37;;;;;;;3.04;61.12;103437.22;4958870;28;20046;-83
2022/03/20 07:29:54;;;;;;;25.90;15.20;;;;;;;3.32;59.33;103429.16;4971510;28;20067;-85
2022/03/20 07:32:21;;;;;;;32.07;17.70;;;;;;;3.42;58.63;103431.41;4953753;28;20138;-82
2022/03/20 07:34:48;;;;;;;26.30;16.00;;;;;;;3.50;59.40;103434.44;4954613;28;20043;-84
2022/03/20 07:37:16;;;;;;;24.17;15.63;;;;;;;3.66;58.36;103423.97;4971709;28;20546;-81
2022/03/20 07:39:46;;;;;;;24.03;15.50;;;;;;;3.71;58.28;103432.06;4941200;28;20051;-82
2022/03/20 07:42:14;;;;;;;25.97;16.17;;;;;;;3.92;55.12;103427.94;4950797;28;20591;-82
2022/03/20 07:44:41;;;;;;;25.37;15.33;;;;;;;3.93;56.82;103428.00;4963169;28;20553;-82
2022/03/20 07:47:08;;;;;;;27.07;16.00;;;;;;;3.96;57.45;103419.44;4938525;28;20043;-83
2022/03/20 07:49:39;;;;;;;24.23;15.90;;;;;;;4.03;53.86;103418.00;4955067;28;20042;-82
2022/03/20 07:52:06;;;;;;;26.17;16.80;;;;;;;4.04;54.33;103422.44;4938516;28;20526;-84
2022/03/20 07:54:36;;;;;;;25.80;16.23;;;;;;;4.15;53.11;103421.25;4938041;28;20065;-85
2022/03/20 07:57:03;;;;;;;26.47;15.07;;;;;;;4.14;54.05;103430.81;4967620;28;20039;-82
2022/03/20 07:59:30;;;;;;;24.10;16.00;;;;;;;4.21;52.17;103426.81;4955730;28;20126;-80
2022/03/20 08:01:57;;;;;;;25.17;15.50;;;;;;;4.31;52.94;103415.06;4954849;28;20042;-80
2022/03/20 08:04:24;;;;;;;22.03;15.40;;;;;;;4.18;51.08;103422.28;4934643;28;20070;-80
2022/03/20 08:06:51;;;;;;;23.40;14.73;;;;;;;4.39;53.32;103414.63;4937169;28;20043;-81
2022/03/20 08:09:18;;;;;;;22.13;15.07;;;;;;;4.61;53.38;103408.69;4961613;28;20035;-82
2022/03/20 08:11:45;;;;;;;25.37;15.03;;;;;;;4.70;51.98;103406.50;4951555;28;20066;-80
2022/03/20 08:14:11;;;;;;;27.10;15.70;;;;;;;4.59;51.80;103406.81;4952444;28;20891;-79
2022/03/20 08:16:39;;;;;;;25.00;14.30;;;;;;;4.66;52.16;103407.19;4956101;28;20565;-80
2022/03/20 08:19:08;;;;;;;23.33;14.37;;;;;;;4.72;50.34;103398.75;4966921;28;20035;-80
2022/03/20 08:21:35;;;;;;;23.60;15.27;;;;;;;4.73;49.11;103396.19;4974725;28;20070;-81
2022/03/20 08:24:02;;;;;;;26.63;15.13;;;;;;;4.87;51.27;103388.94;4969874;28;20046;-80
2022/03/20 08:26:33;;;;;;;22.00;14.67;;;;;;;4.93;50.55;103398.81;4926796;28;20058;-80
2022/03/20 08:29:00;;;;;;;24.43;14.37;;;;;;;5.01;50.58;103392.22;4961043;28;20438;-82
2022/03/20 08:31:29;;;;;;;21.70;13.60;;;;;;;5.19;50.79;103402.63;4970049;28;20046;-81
2022/03/20 08:33:59;;;;;;;25.07;15.20;;;;;;;5.17;50.54;103401.69;4954676;28;20055;-82
2022/03/20 08:36:26;;;;;;;21.97;15.07;;;;;;;5.41;48.73;103409.75;4969854;28;20038;-81
2022/03/20 08:38:53;;;;;;;21.80;13.80;;;;;;;5.49;47.74;103409.28;4963092;28;20114;-83
2022/03/20 08:41:21;;;;;;;22.63;13.77;;;;;;;5.49;46.38;103393.53;4931671;28;20410;-82
2022/03/20 08:43:48;;;;;;;19.93;13.60;;;;;;;5.67;45.08;103400.41;4949838;28;20043;-81
2022/03/20 08:46:16;;;;;;;20.90;13.10;;;;;;;5.71;46.34;103389.22;4951251;28;20049;-82
2022/03/20 08:48:43;;;;;;;18.60;12.27;;;;;;;5.69;46.57;103383.00;4952697;28;20043;-82
2022/03/20 08:51:09;;;;;;;18.83;12.73;;;;;;;5.82;42.53;103386.25;4953264;28;20073;-81
2022/03/20 08:53:37;;;;;;;19.47;12.93;;;;;;;5.96;44.83;103399.97;4947864;28;20050;-80
2022/03/20 08:56:04;;;;;;;20.43;11.43;;;;;;;6.31;40.67;103372.56;4988585;28;20118;-81
2022/03/20 08:58:31;;;;;;;22.00;11.97;;;;;;;6.35;40.29;103378.81;4953366;28;20049;-80
2022/03/20 09:00:58;;;;;;;17.23;11.40;;;;;;;6.49;41.00;103375.03;4960555;28;20093;-80
2022/03/20 09:03:25;;;;;;;19.43;12.20;;;;;;;6.66;38.82;103367.81;4948134;28;20498;-80
2022/03/20 09:05:51;;;;;;;16.60;10.83;;;;;;;6.85;39.29;103375.56;4971556;28;20049;-80
2022/03/20 09:08:18;;;;;;;20.33;12.20;;;;;;;6.77;36.82;103372.63;4939008;28;20045;-80
2022/03/20 09:10:45;;;;;;;15.83;11.37;;;;;;;7.15;38.43;103365.31;4968191;28;20047;-82
2022/03/20 09:13:12;;;;;;;17.17;10.90;;;;;;;7.34;36.54;103366.88;4955620;28;20054;-83
2022/03/20 09:15:39;;;;;;;17.07;12.33;;;;;;;7.37;35.76;103366.06;4957067;28;20094;-83
2022/03/20 09:20:51;;;;;;;19.37;11.70;;;;;;;7.70;34.08;103351.47;4953669;28;20054;-83
2022/03/20 09:23:17;;;;;;;18.40;12.33;;;;;;;7.92;34.21;103339.06;4955404;28;20073;-81
2022/03/20 09:25:44;;;;;;;16.60;10.47;;;;;;;8.05;35.36;103351.75;4953984;28;20050;-82
2022/03/20 09:28:12;;;;;;;18.77;11.73;;;;;;;8.04;32.10;103347.34;4937198;29;20051;-82
2022/03/20 09:30:40;;;;;;;21.17;11.23;;;;;;;8.41;33.27;103339.81;4949157;28;20062;-81
2022/03/20 09:33:10;;;;;;;16.57;10.50;;;;;;;8.78;34.36;103351.47;4954934;28;20046;-84
2022/03/20 09:35:37;;;;;;;15.77;11.63;;;;;;;8.63;31.97;103345.75;4954373;28;20053;-83
2022/03/20 09:38:06;;;;;;;15.40;9.83;;;;;;;9.05;34.26;103342.59;4962634;28;20648;-83
2022/03/20 09:40:35;;;;;;;15.37;11.67;;;;;;;9.22;31.87;103342.22;4957607;28;20054;-82
2022/03/20 09:43:03;;;;;;;17.45;10.40;;;;;;;9.23;32.01;103336.06;4971582;28;20046;-82
2022/03/20 09:45:30;;;;;;;15.47;10.30;;;;;;;9.00;29.67;103335.44;4946142;28;20046;-84
2022/03/20 09:47:57;;;;;;;17.10;11.90;;;;;;;9.11;30.55;103337.50;4966223;28;20036;-81
2022/03/20 09:50:24;;;;;;;17.70;11.68;;;;;;;9.31;31.21;103336.28;4967813;28;20039;-83
2022/03/20 09:52:51;;;;;;;17.80;11.33;;;;;;;9.52;30.66;103339.53;4952407;28;20050;-81
2022/03/20 09:55:18;;;;;;;16.38;11.30;;;;;;;9.83;30.18;103322.72;4957517;28;20050;-81
2022/03/20 09:57:45;;;;;;;17.70;10.68;;;;;;;10.19;30.72;103328.88;4956247;28;20418;-80
2022/03/20 10:00:15;;;;;;;17.88;11.25;;;;;;;10.46;31.19;103326.00;4971862;28;20416;-81
2022/03/20 10:02:41;;;;;;;14.98;10.90;;;;;;;10.52;29.65;103334.97;4955205;28;20039;-81
2022/03/20 10:05:09;;;;;;;16.05;11.43;;;;;;;10.15;28.59;103317.34;4972511;28;20062;-81
2022/03/20 10:07:42;;;;;;;17.10;11.68;;;;;;;9.90;28.90;103325.50;4972836;28;20046;-82
2022/03/20 10:10:17;;;;;;;16.83;11.32;;;;;;;9.61;29.26;103343.25;4948421;28;20113;-80
2022/03/20 10:12:59;;;;;;;27.33;12.90;;;;;;;9.32;29.34;103330.16;4943168;28;20053;-83
2022/03/20 10:15:30;;;;;;;17.15;12.68;;;;;;;9.78;30.60;103326.13;4988647;28;20453;-83
2022/03/20 10:21:00;;;;;;;16.48;11.48;;;;;;;9.64;29.61;103324.84;5006238;28;20709;-74
2022/03/20 10:23:36;;;;;;;17.10;12.48;;;;;;;9.76;30.14;103315.53;4984653;28;20038;-74
2022/03/20 10:26:05;;;;;;;19.42;12.52;;;;;;;10.16;30.74;103306.78;4971633;28;20073;-73
2022/03/20 10:28:40;;;;;;;17.10;12.05;;;;;;;10.61;31.63;103313.16;4971304;28;20038;-74
2022/03/20 10:31:09;;;;;;;17.02;11.80;;;;;;;10.80;30.11;103312.66;4976630;28;20042;-75
2022/03/20 10:33:40;;;;;;;16.90;11.95;;;;;;;11.00;29.39;103299.84;4968852;28;20096;-74
2022/03/20 10:36:15;;;;;;;15.57;11.43;;;;;;;11.30;29.67;103306.59;4986440;28;20038;-75
2022/03/20 10:38:43;;;;;;;24.88;13.65;;;;;;;10.75;28.64;103303.72;4990485;28;20041;-74
2022/03/20 10:41:20;;;;;;;16.48;13.25;;;;;;;10.58;29.16;103307.78;4970540;28;20133;-74
2022/03/20 10:43:49;;;;;;;17.45;12.20;;;;;;;10.29;29.78;103315.94;4986465;28;20460;-74
2022/03/20 10:46:23;;;;;;;17.98;11.82;;;;;;;10.39;29.84;103301.19;4971695;28;20046;-74
2022/03/20 10:48:52;;;;;;;18.40;12.45;;;;;;;10.40;30.17;103300.31;5002859;28;20037;-73
2022/03/20 10:51:26;;;;;;;18.25;11.88;;;;;;;10.56;30.95;103293.63;4971456;28;20041;-73
2022/03/20 10:53:53;;;;;;;14.98;11.95;;;;;;;10.71;31.11;103293.97;4999990;28;20042;-73
2022/03/20 10:56:20;;;;;;;19.15;12.45;;;;;;;10.61;31.05;103281.41;4984792;28;20129;-73
2022/03/20 10:58:46;;;;;;;18.83;12.15;;;;;;;10.70;30.64;103278.97;4982814;28;20072;-73
2022/03/20 11:01:17;;;;;;;17.90;12.43;;;;;;;10.70;29.62;103277.22;4971480;28;20518;-74
2022/03/20 11:03:46;;;;;;;19.02;13.40;;;;;;;10.78;30.57;103268.56;4998489;28;20117;-73
2022/03/20 11:06:13;;;;;;;21.80;13.75;;;;;;;10.60;30.19;103269.06;4974154;28;20042;-74
2022/03/20 11:08:40;;;;;;;18.65;13.05;;;;;;;10.55;30.11;103278.63;4976661;28;20041;-74
2022/03/20 11:11:09;;;;;;;43.50;26.70;;;;;;;10.73;29.80;103279.00;4982285;28;20083;-73
2022/03/20 11:13:37;;;;;;;33.70;22.23;;;;;;;10.38;30.35;103283.56;4980622;28;20038;-73
2022/03/20 11:16:05;;;;;;;19.50;12.55;;;;;;;10.66;30.45;103267.41;4985534;28;20046;-73
2022/03/20 11:18:35;;;;;;;17.13;12.02;;;;;;;10.92;30.99;103261.75;4992459;28;20065;-74
2022/03/20 11:21:04;;;;;;;18.02;12.80;;;;;;;11.40;30.04;103261.78;4983485;28;20046;-73
2022/03/20 11:23:33;;;;;;;17.35;12.27;;;;;;;11.08;28.69;103253.25;4988381;28;20037;-73
2022/03/20 11:26:00;;;;;;;15.13;11.40;;;;;;;10.97;29.01;103258.34;4983569;28;20050;-73
2022/03/20 11:28:27;;;;;;;15.48;12.20;;;;;;;10.58;28.49;103255.78;4974261;28;20060;-73
2022/03/20 11:30:57;;;;;;;17.45;11.63;;;;;;;10.60;28.60;103240.88;5006407;28;20062;-73
2022/03/20 11:33:24;;;;;;;16.45;12.02;;;;;;;11.02;29.27;103242.59;4965142;28;20050;-73
2022/03/20 11:35:51;;;;;;;21.02;12.65;;;;;;;11.12;28.26;103235.72;4969192;28;20050;-73
2022/03/20 11:38:20;;;;;;;16.90;11.48;;;;;;;11.16;29.35;103233.13;4981327;28;20069;-73
2022/03/20 11:41:17;;;;;;;15.70;11.45;;;;;;;11.32;30.12;103230.75;4971360;28;20041;-73
2022/03/20 11:43:47;;;;;;;16.05;11.88;;;;;;;11.48;30.14;103217.81;4968889;28;20508;-73
2022/03/20 11:46:21;;;;;;;15.55;11.55;;;;;;;11.62;29.29;103220.69;4964819;28;20034;-73
2022/03/20 11:49:22;;;;;;;14.30;10.95;;;;;;;11.41;29.55;103209.75;4985207;28;20061;-73
2022/03/20 11:51:58;;;;;;;18.85;11.30;;;;;;;11.64;29.90;103226.00;4983071;28;20042;-73
2022/03/20 11:54:52;;;;;;;14.43;10.25;;;;;;;11.67;29.67;103218.09;4977739;28;20124;-75
2022/03/20 11:57:30;;;;;;;15.77;10.50;;;;;;;11.39;28.43;103201.78;4983245;28;20057;-75
2022/03/20 11:59:58;;;;;;;14.05;10.20;;;;;;;11.76;29.17;103203.25;4995065;28;20050;-76
2022/03/20 12:02:46;;;;;;;14.65;10.45;;;;;;;11.75;28.05;103190.88;4967057;28;20038;-76
2022/03/20 12:05:28;;;;;;;14.95;9.85;;;;;;;12.07;27.55;103193.13;4987551;28;20038;-74
2022/03/20 12:08:04;;;;;;;16.00;10.23;;;;;;;11.78;27.29;103182.09;4981872;28;20038;-78
2022/03/20 12:10:53;;;;;;;14.13;11.73;;;;;;;11.70;26.66;103182.00;4977141;28;20041;-75
2022/03/20 12:13:51;;;;;;;14.60;10.75;;;;;;;12.18;27.77;103185.31;4985508;28;20787;-75
2022/03/20 12:16:54;;;;;;;14.88;9.68;;;;;;;12.09;26.37;103178.13;4985427;28;20038;-75
2022/03/20 12:19:39;;;;;;;12.13;9.10;;;;;;;11.88;25.58;103167.28;4924222;29;20067;-76
2022/03/20 12:22:06;;;;;;;;;;;;;;;12.08;28.38;103165.78;4962870;28;20042;-75
2022/03/20 12:24:35;;;;;;;13.52;9.27;;;;;;;12.26;26.14;103158.03;4984325;28;19929;-75
2022/03/20 12:27:23;;;;;;;12.52;9.52;;;;;;;12.52;26.42;103165.41;4984073;28;20037;-74
2022/03/20 12:30:03;;;;;;;10.98;8.80;;;;;;;12.39;25.09;103152.03;4989161;28;20152;-75
2022/03/20 12:32:59;;;;;;;12.70;8.38;;;;;;;12.77;26.14;103151.56;4967823;28;20038;-75
2022/03/20 12:35:29;;;;;;;13.00;8.95;;;;;;;12.76;23.86;103147.13;4973800;28;20385;-75
2022/03/20 12:37:57;;;;;;;14.43;8.77;;;;;;;12.70;24.15;103136.47;4992288;28;20042;-76
2022/03/20 12:40:30;;;;;;;12.90;8.40;;;;;;;12.74;24.66;103151.53;4959754;28;20580;-75
2022/03/20 12:43:14;;;;;;;11.85;8.40;;;;;;;12.78;25.07;103141.81;4977306;28;20050;-76
2022/03/20 12:45:43;;;;;;;10.63;8.02;;;;;;;12.33;24.96;103148.41;4988982;28;20085;-75
2022/03/20 12:48:15;;;;;;;12.63;8.40;;;;;;;12.49;24.20;103136.22;5006039;28;20033;-76
2022/03/20 12:50:49;;;;;;;9.88;7.65;;;;;;;12.39;22.90;103127.28;4982999;28;20046;-75
2022/03/20 12:53:16;;;;;;;;;;;;;;;12.54;24.60;103140.72;4973894;28;20088;-75
2022/03/20 12:55:58;;;;;;;11.82;7.50;;;;;;;12.29;23.32;103130.72;4974906;28;20342;-76
2022/03/20 12:58:25;;;;;;;11.07;8.05;;;;;;;12.47;24.19;103130.91;4984002;28;20050;-75
2022/03/20 13:00:53;;;;;;;12.00;7.95;;;;;;;12.08;23.66;103142.81;4973702;28;20397;-75
2022/03/20 13:03:20;;;;;;;11.77;7.65;;;;;;;11.79;23.76;103107.97;4959300;28;20356;-74
2022/03/20 13:05:57;;;;;;;11.93;7.28;;;;;;;12.07;23.52;103108.34;4974798;28;20076;-75
2022/03/20 13:08:41;;;;;;;10.73;7.57;;;;;;;12.36;24.07;103108.72;4978659;28;20041;-74
2022/03/20 13:14:12;;;;;;;11.90;8.35;;;;;;;12.74;24.13;103102.91;4993529;28;20052;-75
2022/03/20 13:16:55;;;;;;;13.10;8.02;;;;;;;12.54;23.93;103094.75;4980066;28;20532;-76
2022/03/20 13:19:33;;;;;;;11.43;8.68;;;;;;;12.76;25.07;103099.38;4972120;28;20082;-77
2022/03/20 13:22:08;;;;;;;11.40;9.05;;;;;;;12.89;23.94;103090.66;4990842;28;20042;-76
2022/03/20 13:24:40;;;;;;;14.02;9.60;;;;;;;12.54;23.09;103084.16;4988611;28;20042;-76
2022/03/20 13:27:09;;;;;;;10.55;8.25;;;;;;;12.26;24.08;103093.53;4988032;28;20041;-75
2022/03/20 13:29:37;;;;;;;14.15;9.00;;;;;;;11.83;23.45;103083.31;4972297;28;20080;-76